createdAt,value
2023-02-11T00:03:24.041Z,11.47
2023-02-11T00:13:26.945Z,13.02
2023-02-11T00:23:29.415Z,11.60
2023-02-11T00:33:31.887Z,12.87
2023-02-11T00:43:35.686Z,12.05
2023-02-11T00:53:38.744Z,12.57
2023-02-11T01:03:41.547Z,14.63
2023-02-11T01:13:44.543Z,12.20
2023-02-11T01:23:47.119Z,10.95
2023-02-11T01:33:49.645Z,11.87
2023-02-11T01:43:52.162Z,12.40
2023-02-11T01:54:14.483Z,12.70
2023-02-11T02:04:19.073Z,14.23
2023-02-11T02:14:21.677Z,12.60
2023-02-11T02:25:01.164Z,11.13
2023-02-11T02:35:22.996Z,11.83
2023-02-11T02:45:25.452Z,12.77
2023-02-11T02:55:47.229Z,14.18
2023-02-11T03:06:16.552Z,11.02
2023-02-11T03:16:23.017Z,8.27
2023-02-11T03:26:28.575Z,10.87
2023-02-11T03:36:38.561Z,11.30
2023-02-11T03:46:48.045Z,10.57
2023-02-11T03:56:56.979Z,8.23
2023-02-11T04:06:59.434Z,11.15
2023-02-11T04:17:02.143Z,10.20
2023-02-11T04:27:04.793Z,11.07
2023-02-11T04:37:08.511Z,10.55
2023-02-11T04:47:13.493Z,11.60
2023-02-11T04:57:16.016Z,9.57
2023-02-11T05:07:18.720Z,10.40
2023-02-11T05:17:21.302Z,11.90
2023-02-11T05:27:23.799Z,12.07
2023-02-11T05:37:26.395Z,11.50
2023-02-11T05:47:29.316Z,11.98
2023-02-11T05:57:31.755Z,12.77
2023-02-11T06:07:34.424Z,11.67
2023-02-11T06:17:37.499Z,13.25
2023-02-11T06:27:40.562Z,15.10
2023-02-11T06:37:43.388Z,11.30
2023-02-11T06:47:45.873Z,14.93
2023-02-11T06:57:48.443Z,13.25
2023-02-11T07:07:50.990Z,13.77
2023-02-11T07:17:53.626Z,15.00
2023-02-11T07:27:56.849Z,13.80
2023-02-11T07:37:59.373Z,12.97
2023-02-11T07:48:01.955Z,14.70
2023-02-11T07:58:04.449Z,15.15
2023-02-11T08:08:07.037Z,11.85
2023-02-11T08:18:09.554Z,16.53
2023-02-11T08:28:12.079Z,13.63
2023-02-11T08:38:14.602Z,14.98
2023-02-11T08:48:17.105Z,18.00
2023-02-11T08:58:20.660Z,15.80
2023-02-11T09:08:24.320Z,15.43
2023-02-11T09:18:28.505Z,14.53
2023-02-11T09:28:30.970Z,11.70
2023-02-11T09:38:33.906Z,11.10
2023-02-11T09:48:42.028Z,12.90
2023-02-11T09:58:45.349Z,11.03
2023-02-11T10:09:06.886Z,10.30
2023-02-11T10:19:35.476Z,13.32
2023-02-11T10:29:46.322Z,9.90
2023-02-11T10:39:48.771Z,9.80
2023-02-11T10:49:52.015Z,10.32
2023-02-11T11:00:00.355Z,9.90
2023-02-11T11:10:25.168Z,8.00
2023-02-11T11:20:30.494Z,8.15
2023-02-11T11:30:42.855Z,11.90
2023-02-11T11:40:45.432Z,8.53
2023-02-11T11:50:53.851Z,8.57
2023-02-11T12:01:05.106Z,8.45
2023-02-11T12:11:22.958Z,7.93
2023-02-11T12:21:52.271Z,8.60
2023-02-11T12:32:08.035Z,8.13
2023-02-11T12:43:09.031Z,8.10
2023-02-11T12:53:37.096Z,8.30
2023-02-11T13:03:45.224Z,8.00
2023-02-11T13:14:11.782Z,9.50
2023-02-11T13:24:20.247Z,8.50
2023-02-11T13:34:47.096Z,8.63
2023-02-11T13:44:50.204Z,8.77
2023-02-11T13:54:54.755Z,9.43
2023-02-11T14:05:24.757Z,9.40
2023-02-11T14:15:27.922Z,10.13
2023-02-11T14:25:31.086Z,9.90
2023-02-11T14:35:39.538Z,8.20
2023-02-11T14:45:51.190Z,8.27
2023-02-11T14:55:55.632Z,10.27
2023-02-11T15:06:18.487Z,10.47
2023-02-11T15:16:24.920Z,9.67
2023-02-11T15:26:29.139Z,8.02
2023-02-11T15:36:34.296Z,11.20
2023-02-11T15:46:39.513Z,9.87
2023-02-11T15:56:45.023Z,13.57
2023-02-11T16:06:48.436Z,15.37
2023-02-11T16:16:54.458Z,18.10
2023-02-11T16:27:02.832Z,16.30
2023-02-11T16:37:06.151Z,18.43
2023-02-11T16:47:20.707Z,19.23
2023-02-11T16:57:26.928Z,21.93
2023-02-11T17:07:31.281Z,25.55
2023-02-11T17:17:33.973Z,29.97
2023-02-11T17:27:36.763Z,20.60
2023-02-11T17:37:39.281Z,18.55
2023-02-11T17:47:42.147Z,22.80
2023-02-11T17:57:44.889Z,21.10
2023-02-11T18:07:48.585Z,21.90
2023-02-11T18:17:51.338Z,20.53
2023-02-11T18:27:56.197Z,9.43
2023-02-11T18:37:58.741Z,19.40
2023-02-11T18:48:03.753Z,16.75
2023-02-11T18:58:07.245Z,23.77
2023-02-11T19:08:09.835Z,24.03
2023-02-11T19:18:14.357Z,19.73
2023-02-11T19:28:17.409Z,22.50
2023-02-11T19:38:23.479Z,26.33
2023-02-11T19:48:27.280Z,18.20
2023-02-11T19:58:30.055Z,20.73
2023-02-11T20:08:33.325Z,17.50
2023-02-11T20:18:36.923Z,22.23
2023-02-11T20:28:39.694Z,20.38
2023-02-11T20:38:43.153Z,23.83
2023-02-11T20:48:46.414Z,40.90
2023-02-11T20:58:50.063Z,40.13
2023-02-11T21:08:54.135Z,34.30
2023-02-11T21:18:57.555Z,36.70
2023-02-11T21:28:59.977Z,44.55
2023-02-11T21:39:04.087Z,27.37
2023-02-11T21:49:07.847Z,20.07
2023-02-11T21:59:14.053Z,19.13
2023-02-11T22:09:17.004Z,17.33
2023-02-11T22:19:19.603Z,9.43
2023-02-11T22:29:22.347Z,10.43
2023-02-11T22:39:25.295Z,5.82
2023-02-11T22:49:29.026Z,3.17
2023-02-11T22:59:31.507Z,2.27
2023-02-11T23:09:34.059Z,2.33
2023-02-11T23:19:36.838Z,1.90
2023-02-11T23:29:39.413Z,2.27
2023-02-11T23:39:41.925Z,1.90
2023-02-11T23:49:44.564Z,2.03
2023-02-11T23:59:49.781Z,1.90
